»·PEaware :: ANW520 EDDH-EHAM

ANW520 :: EDDH-EHAM

FLIGHT INFORMATION

Flight Status: Arrived
Operator:
Air Northwest (website)
More flights by this operator :: More flights under this callsign
Pilot: James B. (42)
Aircraft: CESSNA 208 CARAVAN
(C208)
More flights by this aircraft type
Origin: EDDH Hamburg
Germany
Destination: EHAM Schiphol
Netherlands
More flights between these airports :: More routes between these airports
Route: LBE N125 EEL N872 DCT SPL
File this flight plan on PilotEdge
Remarks: Route Test for ANW
Altitude:
(Current/Filed)
6,000ft
Speed:
(Current/Filed)
180kts
Departed: 02-Oct-13 05:46 PM
Arrived: 02-Oct-13 07:40 PM
Distance/Time
Traveled:
204nm/1:53
Distance/Time
To Go:
Arrived

Flight Plot

Page will automatically refresh every two minutes.


Map Options




Map Legend


Flown Route
Filed Route
Departure Airport
Arrival Airport
Navaid (VOR, NDB)
Fix

Horizontal Profiles

Position Reports

Time Latitude Longitude Heading Altitude Ground
Speed
02-Oct-13 17:29 53.625748 9.987083 239 37ft 0kts
02-Oct-13 17:30 53.625748 9.987083 239 37ft 0kts
02-Oct-13 17:31 53.626147 9.989981 241 39ft 0kts
02-Oct-13 17:32 53.626147 9.989981 241 39ft 0kts
02-Oct-13 17:33 53.626513 9.987250 241 36ft 0kts
02-Oct-13 17:34 53.626513 9.987250 241 36ft 0kts
02-Oct-13 17:35 53.626160 9.989968 241 58ft 0kts
02-Oct-13 17:36 53.626160 9.989968 241 58ft 0kts
02-Oct-13 17:37 53.626160 9.989968 241 58ft 0kts
02-Oct-13 17:38 53.625482 9.989617 247 58ft 7kts
02-Oct-13 17:39 53.624972 9.984986 254 58ft 15kts
02-Oct-13 17:40 53.624272 9.980891 230 59ft 9kts
02-Oct-13 17:41 53.622407 9.977148 231 58ft 15kts
02-Oct-13 17:42 53.623075 9.973817 41 58ft 14kts
02-Oct-13 17:43 53.633489 9.992289 47 498ft 117kts
02-Oct-13 17:44 53.655494 9.982359 268 1201ft 149kts
02-Oct-13 17:45 53.634734 9.945615 204 1986ft 151kts
02-Oct-13 17:46 53.632322 9.896868 280 3182ft 137kts
02-Oct-13 17:47 53.635097 9.854196 274 3913ft 117kts
02-Oct-13 17:48 53.638729 9.800208 274 4904ft 120kts
02-Oct-13 17:49 53.641374 9.760891 274 5605ft 119kts
02-Oct-13 17:50 53.643896 9.724045 274 6232ft 121kts
02-Oct-13 17:51 53.647511 9.669789 274 6289ft 158kts
02-Oct-13 17:52 53.651633 9.607321 274 6286ft 166kts
02-Oct-13 17:53 53.654492 9.563684 274 6287ft 166kts
02-Oct-13 17:54 53.658548 9.500753 274 6290ft 166kts
02-Oct-13 17:55 53.662239 9.438347 265 6290ft 166kts
02-Oct-13 17:56 53.642726 9.391650 225 6293ft 160kts
02-Oct-13 17:57 53.621669 9.350284 225 6290ft 160kts
02-Oct-13 17:58 53.599262 9.306310 225 6275ft 160kts
02-Oct-13 17:59 53.575607 9.259913 225 6263ft 160kts
02-Oct-13 18:00 53.559471 9.228278 225 6256ft 160kts
02-Oct-13 18:01 53.555408 9.220312 225 6253ft 160kts
02-Oct-13 18:02 53.531401 9.173070 225 6242ft 159kts
02-Oct-13 18:03 53.508123 9.126885 225 6230ft 158kts
02-Oct-13 18:04 53.485173 9.081065 225 6227ft 158kts
02-Oct-13 18:05 53.461176 9.037505 202 6227ft 152kts
02-Oct-13 18:06 53.429226 9.014889 197 6228ft 151kts
02-Oct-13 18:07 53.397808 8.994200 196 6228ft 150kts
02-Oct-13 18:08 53.365952 8.974440 194 6229ft 150kts
02-Oct-13 18:09 53.333882 8.955686 193 6229ft 149kts
02-Oct-13 18:10 53.315005 8.913068 262 6229ft 164kts
02-Oct-13 18:11 53.313279 8.851120 263 6227ft 169kts
02-Oct-13 18:12 53.311627 8.789374 263 6227ft 170kts
02-Oct-13 18:13 53.311266 8.776841 263 6227ft 170kts
02-Oct-13 18:14 53.309391 8.715855 263 6227ft 171kts
02-Oct-13 18:15 53.307194 8.650261 263 6227ft 171kts
02-Oct-13 18:16 53.304896 8.586078 263 6228ft 172kts
02-Oct-13 18:17 53.302454 8.521927 263 6227ft 172kts
02-Oct-13 18:18 53.299797 8.456063 263 6227ft 172kts
02-Oct-13 18:19 53.296976 8.389884 263 6227ft 172kts
02-Oct-13 18:20 53.294051 8.324764 263 6220ft 172kts
02-Oct-13 18:21 53.290949 8.258861 263 6212ft 171kts
02-Oct-13 18:22 53.287715 8.193121 263 6204ft 170kts
02-Oct-13 18:23 53.284285 8.126363 263 6198ft 169kts
02-Oct-13 18:24 53.280645 8.058727 263 6198ft 169kts
02-Oct-13 18:25 53.276865 7.991713 264 6199ft 169kts
02-Oct-13 18:26 53.272863 7.923799 264 6198ft 170kts
02-Oct-13 18:27 53.268691 7.855826 262 6197ft 169kts
02-Oct-13 18:28 53.264438 7.789123 262 6197ft 169kts
02-Oct-13 18:29 53.260090 7.723364 262 6197ft 169kts
02-Oct-13 18:30 53.255551 7.657308 261 6197ft 171kts
02-Oct-13 18:31 53.250823 7.591041 261 6194ft 172kts
02-Oct-13 18:32 53.245912 7.524441 261 6190ft 171kts
02-Oct-13 18:33 53.241044 7.460431 261 6185ft 171kts
02-Oct-13 18:34 53.236088 7.397087 261 6182ft 170kts
02-Oct-13 18:35 53.231013 7.334004 261 6180ft 170kts
02-Oct-13 18:36 53.225738 7.270287 260 5921ft 178kts
02-Oct-13 18:37 53.220402 7.206579 260 5906ft 171kts
02-Oct-13 18:38 53.215260 7.146130 260 5898ft 169kts
02-Oct-13 18:39 53.210064 7.086364 260 5888ft 169kts
02-Oct-13 18:40 53.204792 7.027102 260 5879ft 169kts
02-Oct-13 18:41 53.199523 6.969230 260 5872ft 170kts
02-Oct-13 18:42 53.194178 6.911792 260 5869ft 170kts
02-Oct-13 18:43 53.188781 6.854995 259 5868ft 169kts
02-Oct-13 18:44 53.183479 6.800314 259 5868ft 169kts
02-Oct-13 18:45 53.177950 6.744427 258 5868ft 169kts
02-Oct-13 18:46 53.172475 6.690137 258 5868ft 169kts
02-Oct-13 18:47 53.166809 6.635018 258 5868ft 169kts
02-Oct-13 18:48 53.160011 6.579482 237 5865ft 167kts
02-Oct-13 18:49 53.139864 6.536853 227 5868ft 166kts
02-Oct-13 18:50 53.118941 6.494245 227 5868ft 166kts
02-Oct-13 18:51 53.098014 6.451846 227 5869ft 166kts
02-Oct-13 18:52 53.077127 6.409576 227 5868ft 166kts
02-Oct-13 18:53 53.055935 6.366608 227 5868ft 166kts
02-Oct-13 18:54 53.038655 6.331624 227 5869ft 166kts
02-Oct-13 18:55 53.014178 6.284552 224 5869ft 166kts
02-Oct-13 18:56 52.996265 6.251994 224 5869ft 166kts
02-Oct-13 18:57 52.970871 6.205351 224 5853ft 167kts
02-Oct-13 18:58 52.953212 6.171276 224 5830ft 169kts
02-Oct-13 18:59 52.932887 6.128906 224 5794ft 169kts
02-Oct-13 19:00 52.912669 6.085615 221 5764ft 165kts
02-Oct-13 19:01 52.889811 6.052818 188 5744ft 142kts
02-Oct-13 19:02 52.862704 6.038525 187 5732ft 138kts
02-Oct-13 19:03 52.836864 6.016148 203 5723ft 144kts
02-Oct-13 19:04 52.813882 5.984142 210 5720ft 147kts
02-Oct-13 19:05 52.792213 5.947644 214 5719ft 148kts
02-Oct-13 19:06 52.770336 5.907941 215 5720ft 148kts
02-Oct-13 19:07 52.748845 5.866686 215 5718ft 149kts
02-Oct-13 19:08 52.727380 5.825482 215 5719ft 149kts
02-Oct-13 19:09 52.705626 5.784148 215 5718ft 150kts
02-Oct-13 19:10 52.683839 5.742903 214 5718ft 151kts
02-Oct-13 19:11 52.662068 5.701818 214 5718ft 152kts
02-Oct-13 19:12 52.639853 5.659963 214 5718ft 153kts
02-Oct-13 19:13 52.617963 5.618797 215 5718ft 153kts
02-Oct-13 19:14 52.596377 5.578281 215 5718ft 152kts
02-Oct-13 19:15 52.574514 5.537311 215 5719ft 151kts
02-Oct-13 19:16 52.555041 5.500936 215 5722ft 150kts
02-Oct-13 19:17 52.534997 5.463647 216 5727ft 152kts
02-Oct-13 19:18 52.515557 5.427436 217 5732ft 154kts
02-Oct-13 19:19 52.498048 5.392815 237 5732ft 164kts
02-Oct-13 19:20 52.488491 5.347466 241 5741ft 167kts
02-Oct-13 19:21 52.477143 5.301378 241 5746ft 167kts
02-Oct-13 19:22 52.465130 5.256141 241 5750ft 167kts
02-Oct-13 19:23 52.452698 5.210097 241 5750ft 168kts
02-Oct-13 19:24 52.441038 5.167122 241 5752ft 168kts
02-Oct-13 19:25 52.429843 5.126047 241 5752ft 168kts
02-Oct-13 19:26 52.418521 5.084616 241 5752ft 168kts
02-Oct-13 19:27 52.407414 5.043937 241 5752ft 168kts
02-Oct-13 19:28 52.395901 5.001741 241 5752ft 168kts
02-Oct-13 19:29 52.383238 4.960079 239 5337ft 176kts
02-Oct-13 19:30 52.371424 4.920405 240 3982ft 167kts
02-Oct-13 19:31 52.358852 4.882851 231 2506ft 163kts
02-Oct-13 19:32 52.346014 4.845594 236 1298ft 147kts
02-Oct-13 19:33 52.333361 4.814188 228 569ft 122kts
02-Oct-13 19:34 52.322146 4.790790 239 187ft 97kts
02-Oct-13 19:35 52.325944 4.760995 250 483ft 114kts
02-Oct-13 19:36 52.317590 4.765381 106 95ft 73kts
02-Oct-13 19:37 52.317535 4.775855 95 -5ft 15kts
02-Oct-13 19:38 52.316142 4.775065 202 -5ft 8kts
02-Oct-13 19:39 52.315606 4.774864 182 -5ft 0kts

Navigation Log

Ident Type
Flight plan parsing failed, navigation log unavailable